sensor_id;sensor_type;location;lat;lon;timestamp;P1;durP1;ratioP1;P2;durP2;ratioP2
16770;SDS011;8503;52.472;13.344;2022-12-18T00:00:23;25.30;;;10.47;;
16770;SDS011;8503;52.472;13.344;2022-12-18T00:01:47;24.53;;;9.17;;
16770;SDS011;8503;52.472;13.344;2022-12-18T00:03:12;30.23;;;11.80;;
16770;SDS011;8503;52.472;13.344;2022-12-18T00:04:36;30.70;;;10.40;;
16770;SDS011;8503;52.472;13.344;2022-12-18T00:05:59;16.13;;;7.47;;
16770;SDS011;8503;52.472;13.344;2022-12-18T00:07:23;26.57;;;10.03;;
16770;SDS011;8503;52.472;13.344;2022-12-18T00:08:47;25.47;;;9.10;;
16770;SDS011;8503;52.472;13.344;2022-12-18T00:10:09;29.23;;;8.47;;
16770;SDS011;8503;52.472;13.344;2022-12-18T00:11:35;23.73;;;9.13;;
16770;SDS011;8503;52.472;13.344;2022-12-18T00:12:58;28.37;;;9.73;;
16770;SDS011;8503;52.472;13.344;2022-12-18T00:14:26;11.80;;;5.57;;
16770;SDS011;8503;52.472;13.344;2022-12-18T00:15:50;20.90;;;7.63;;
16770;SDS011;8503;52.472;13.344;2022-12-18T00:17:16;16.93;;;7.37;;
16770;SDS011;8503;52.472;13.344;2022-12-18T00:18:41;21.83;;;8.33;;
16770;SDS011;8503;52.472;13.344;2022-12-18T00:20:05;29.17;;;10.13;;
16770;SDS011;8503;52.472;13.344;2022-12-18T00:21:30;23.70;;;9.37;;
16770;SDS011;8503;52.472;13.344;2022-12-18T00:22:53;24.27;;;7.73;;
16770;SDS011;8503;52.472;13.344;2022-12-18T00:24:17;24.93;;;9.67;;
16770;SDS011;8503;52.472;13.344;2022-12-18T00:25:41;23.43;;;9.00;;
16770;SDS011;8503;52.472;13.344;2022-12-18T00:27:03;29.80;;;9.73;;
16770;SDS011;8503;52.472;13.344;2022-12-18T00:28:27;27.80;;;9.30;;
16770;SDS011;8503;52.472;13.344;2022-12-18T00:29:49;21.07;;;8.70;;
16770;SDS011;8503;52.472;13.344;2022-12-18T00:31:13;24.63;;;9.93;;
16770;SDS011;8503;52.472;13.344;2022-12-18T00:32:40;22.63;;;8.90;;
16770;SDS011;8503;52.472;13.344;2022-12-18T00:34:05;23.37;;;9.00;;
16770;SDS011;8503;52.472;13.344;2022-12-18T00:35:27;23.10;;;8.87;;
16770;SDS011;8503;52.472;13.344;2022-12-18T00:36:51;29.63;;;9.87;;
16770;SDS011;8503;52.472;13.344;2022-12-18T00:38:14;27.57;;;9.87;;
16770;SDS011;8503;52.472;13.344;2022-12-18T00:39:38;12.03;;;4.17;;
16770;SDS011;8503;52.472;13.344;2022-12-18T00:41:00;26.23;;;8.00;;
16770;SDS011;8503;52.472;13.344;2022-12-18T00:42:24;19.63;;;8.00;;
16770;SDS011;8503;52.472;13.344;2022-12-18T00:44:06;28.73;;;8.80;;
16770;SDS011;8503;52.472;13.344;2022-12-18T00:45:29;26.43;;;9.67;;
16770;SDS011;8503;52.472;13.344;2022-12-18T00:46:53;27.17;;;9.37;;
16770;SDS011;8503;52.472;13.344;2022-12-18T00:48:16;22.90;;;8.23;;
16770;SDS011;8503;52.472;13.344;2022-12-18T00:49:40;21.30;;;7.47;;
16770;SDS011;8503;52.472;13.344;2022-12-18T00:51:04;19.43;;;7.07;;
16770;SDS011;8503;52.472;13.344;2022-12-18T00:52:29;22.27;;;7.90;;
16770;SDS011;8503;52.472;13.344;2022-12-18T00:53:53;11.53;;;4.60;;
16770;SDS011;8503;52.472;13.344;2022-12-18T00:55:16;19.27;;;8.07;;
16770;SDS011;8503;52.472;13.344;2022-12-18T00:56:39;29.77;;;9.10;;
16770;SDS011;8503;52.472;13.344;2022-12-18T00:58:10;23.90;;;9.00;;
16770;SDS011;8503;52.472;13.344;2022-12-18T00:59:34;26.53;;;9.27;;
16770;SDS011;8503;52.472;13.344;2022-12-18T01:00:58;30.20;;;10.37;;
16770;SDS011;8503;52.472;13.344;2022-12-18T01:02:20;29.30;;;11.33;;
16770;SDS011;8503;52.472;13.344;2022-12-18T01:03:44;24.93;;;8.30;;
16770;SDS011;8503;52.472;13.344;2022-12-18T01:05:09;33.87;;;11.27;;
16770;SDS011;8503;52.472;13.344;2022-12-18T01:06:33;29.67;;;8.67;;
16770;SDS011;8503;52.472;13.344;2022-12-18T01:07:56;24.43;;;10.77;;
16770;SDS011;8503;52.472;13.344;2022-12-18T01:09:19;9.57;;;3.83;;
16770;SDS011;8503;52.472;13.344;2022-12-18T01:10:43;28.70;;;9.90;;
16770;SDS011;8503;52.472;13.344;2022-12-18T01:12:06;25.87;;;7.50;;
16770;SDS011;8503;52.472;13.344;2022-12-18T01:13:29;14.13;;;5.57;;
16770;SDS011;8503;52.472;13.344;2022-12-18T01:14:52;20.57;;;7.93;;
16770;SDS011;8503;52.472;13.344;2022-12-18T01:16:16;33.47;;;10.53;;
16770;SDS011;8503;52.472;13.344;2022-12-18T01:17:39;24.50;;;9.73;;
16770;SDS011;8503;52.472;13.344;2022-12-18T01:19:02;19.50;;;8.13;;
16770;SDS011;8503;52.472;13.344;2022-12-18T01:20:27;21.03;;;8.70;;
16770;SDS011;8503;52.472;13.344;2022-12-18T01:21:50;30.67;;;10.57;;
16770;SDS011;8503;52.472;13.344;2022-12-18T01:23:13;25.23;;;8.23;;
16770;SDS011;8503;52.472;13.344;2022-12-18T01:24:36;22.77;;;9.13;;
16770;SDS011;8503;52.472;13.344;2022-12-18T01:26:03;24.23;;;9.97;;
16770;SDS011;8503;52.472;13.344;2022-12-18T01:27:27;31.67;;;8.90;;
16770;SDS011;8503;52.472;13.344;2022-12-18T01:28:50;27.07;;;9.47;;
16770;SDS011;8503;52.472;13.344;2022-12-18T01:30:13;28.40;;;9.43;;
16770;SDS011;8503;52.472;13.344;2022-12-18T01:31:36;31.57;;;11.00;;
16770;SDS011;8503;52.472;13.344;2022-12-18T01:33:00;24.57;;;8.47;;
16770;SDS011;8503;52.472;13.344;2022-12-18T01:34:22;31.17;;;10.40;;
16770;SDS011;8503;52.472;13.344;2022-12-18T01:35:47;27.40;;;10.40;;
16770;SDS011;8503;52.472;13.344;2022-12-18T01:37:09;34.40;;;10.87;;
16770;SDS011;8503;52.472;13.344;2022-12-18T01:38:33;29.70;;;10.97;;
16770;SDS011;8503;52.472;13.344;2022-12-18T01:39:56;31.13;;;10.97;;
16770;SDS011;8503;52.472;13.344;2022-12-18T01:41:21;31.03;;;10.33;;
16770;SDS011;8503;52.472;13.344;2022-12-18T01:42:45;29.50;;;9.70;;
16770;SDS011;8503;52.472;13.344;2022-12-18T01:46:14;28.13;;;10.77;;
16770;SDS011;8503;52.472;13.344;2022-12-18T01:47:38;29.70;;;10.03;;
16770;SDS011;8503;52.472;13.344;2022-12-18T01:49:04;21.20;;;9.67;;
16770;SDS011;8503;52.472;13.344;2022-12-18T01:50:29;29.60;;;10.40;;
16770;SDS011;8503;52.472;13.344;2022-12-18T01:51:55;25.97;;;8.83;;
16770;SDS011;8503;52.472;13.344;2022-12-18T01:53:19;29.83;;;10.80;;
16770;SDS011;8503;52.472;13.344;2022-12-18T01:54:43;31.60;;;10.70;;
16770;SDS011;8503;52.472;13.344;2022-12-18T01:56:07;27.83;;;11.27;;
16770;SDS011;8503;52.472;13.344;2022-12-18T01:57:32;27.67;;;10.47;;
16770;SDS011;8503;52.472;13.344;2022-12-18T01:58:56;31.23;;;11.37;;
16770;SDS011;8503;52.472;13.344;2022-12-18T02:00:22;30.10;;;10.40;;
16770;SDS011;8503;52.472;13.344;2022-12-18T02:01:46;25.33;;;9.07;;
16770;SDS011;8503;52.472;13.344;2022-12-18T02:03:10;31.40;;;10.93;;
16770;SDS011;8503;52.472;13.344;2022-12-18T02:04:34;26.17;;;9.37;;
16770;SDS011;8503;52.472;13.344;2022-12-18T02:05:58;27.80;;;9.90;;
16770;SDS011;8503;52.472;13.344;2022-12-18T02:07:32;35.10;;;10.07;;
16770;SDS011;8503;52.472;13.344;2022-12-18T02:09:01;26.67;;;9.67;;
16770;SDS011;8503;52.472;13.344;2022-12-18T02:10:34;26.63;;;9.37;;
16770;SDS011;8503;52.472;13.344;2022-12-18T02:12:05;28.23;;;10.23;;
16770;SDS011;8503;52.472;13.344;2022-12-18T02:13:36;27.87;;;9.60;;
16770;SDS011;8503;52.472;13.344;2022-12-18T02:15:05;32.70;;;10.40;;
16770;SDS011;8503;52.472;13.344;2022-12-18T02:16:34;33.53;;;10.90;;
16770;SDS011;8503;52.472;13.344;2022-12-18T02:18:02;33.13;;;11.00;;
16770;SDS011;8503;52.472;13.344;2022-12-18T02:19:37;25.90;;;9.63;;
16770;SDS011;8503;52.472;13.344;2022-12-18T02:21:08;34.17;;;11.53;;
16770;SDS011;8503;52.472;13.344;2022-12-18T02:22:39;30.20;;;10.70;;
16770;SDS011;8503;52.472;13.344;2022-12-18T02:24:12;29.53;;;10.03;;
16770;SDS011;8503;52.472;13.344;2022-12-18T02:25:44;14.23;;;5.67;;
16770;SDS011;8503;52.472;13.344;2022-12-18T02:27:24;29.67;;;9.97;;
16770;SDS011;8503;52.472;13.344;2022-12-18T02:28:49;31.10;;;10.57;;
16770;SDS011;8503;52.472;13.344;2022-12-18T02:30:15;26.70;;;9.30;;
16770;SDS011;8503;52.472;13.344;2022-12-18T02:31:38;34.33;;;10.33;;
16770;SDS011;8503;52.472;13.344;2022-12-18T02:33:05;21.87;;;9.97;;
16770;SDS011;8503;52.472;13.344;2022-12-18T02:34:30;27.57;;;9.63;;
16770;SDS011;8503;52.472;13.344;2022-12-18T02:35:54;32.90;;;9.87;;
16770;SDS011;8503;52.472;13.344;2022-12-18T02:37:18;33.93;;;11.40;;
16770;SDS011;8503;52.472;13.344;2022-12-18T02:38:43;35.77;;;11.83;;
16770;SDS011;8503;52.472;13.344;2022-12-18T02:40:07;39.37;;;12.10;;
16770;SDS011;8503;52.472;13.344;2022-12-18T02:41:33;27.27;;;10.53;;
16770;SDS011;8503;52.472;13.344;2022-12-18T02:43:01;35.70;;;10.03;;
16770;SDS011;8503;52.472;13.344;2022-12-18T02:44:25;34.33;;;10.30;;
16770;SDS011;8503;52.472;13.344;2022-12-18T02:45:50;28.90;;;9.97;;
16770;SDS011;8503;52.472;13.344;2022-12-18T02:47:15;26.27;;;8.93;;
16770;SDS011;8503;52.472;13.344;2022-12-18T02:48:40;27.00;;;9.33;;
16770;SDS011;8503;52.472;13.344;2022-12-18T02:50:05;30.00;;;10.67;;
16770;SDS011;8503;52.472;13.344;2022-12-18T02:51:32;25.77;;;10.20;;
16770;SDS011;8503;52.472;13.344;2022-12-18T02:53:01;25.90;;;9.23;;
16770;SDS011;8503;52.472;13.344;2022-12-18T02:54:36;28.47;;;10.47;;
16770;SDS011;8503;52.472;13.344;2022-12-18T02:56:07;27.40;;;9.10;;
16770;SDS011;8503;52.472;13.344;2022-12-18T02:57:36;12.97;;;4.73;;
16770;SDS011;8503;52.472;13.344;2022-12-18T02:59:04;13.37;;;6.77;;
16770;SDS011;8503;52.472;13.344;2022-12-18T03:00:31;19.23;;;7.77;;
16770;SDS011;8503;52.472;13.344;2022-12-18T03:02:01;32.37;;;9.47;;
16770;SDS011;8503;52.472;13.344;2022-12-18T03:03:29;31.87;;;8.77;;
16770;SDS011;8503;52.472;13.344;2022-12-18T03:04:55;24.67;;;7.80;;
16770;SDS011;8503;52.472;13.344;2022-12-18T03:06:24;30.53;;;9.70;;
16770;SDS011;8503;52.472;13.344;2022-12-18T03:07:51;21.83;;;7.97;;
16770;SDS011;8503;52.472;13.344;2022-12-18T03:09:18;23.27;;;8.47;;
16770;SDS011;8503;52.472;13.344;2022-12-18T03:10:44;18.37;;;6.53;;
16770;SDS011;8503;52.472;13.344;2022-12-18T03:12:10;15.13;;;6.57;;
16770;SDS011;8503;52.472;13.344;2022-12-18T03:13:48;9.80;;;3.23;;
16770;SDS011;8503;52.472;13.344;2022-12-18T03:15:14;20.73;;;7.87;;
16770;SDS011;8503;52.472;13.344;2022-12-18T03:16:38;26.23;;;9.60;;
16770;SDS011;8503;52.472;13.344;2022-12-18T03:18:03;24.67;;;8.70;;
16770;SDS011;8503;52.472;13.344;2022-12-18T03:19:28;28.07;;;9.23;;
16770;SDS011;8503;52.472;13.344;2022-12-18T03:20:55;24.13;;;7.70;;
16770;SDS011;8503;52.472;13.344;2022-12-18T03:22:21;19.07;;;7.27;;
16770;SDS011;8503;52.472;13.344;2022-12-18T03:23:46;19.43;;;8.97;;
16770;SDS011;8503;52.472;13.344;2022-12-18T03:25:13;21.20;;;8.03;;
16770;SDS011;8503;52.472;13.344;2022-12-18T03:26:36;15.37;;;4.60;;
16770;SDS011;8503;52.472;13.344;2022-12-18T03:28:02;17.90;;;5.90;;
16770;SDS011;8503;52.472;13.344;2022-12-18T03:29:27;19.00;;;6.87;;
16770;SDS011;8503;52.472;13.344;2022-12-18T03:30:53;22.77;;;7.40;;
16770;SDS011;8503;52.472;13.344;2022-12-18T03:32:19;27.43;;;8.43;;
16770;SDS011;8503;52.472;13.344;2022-12-18T03:33:46;21.93;;;9.13;;
16770;SDS011;8503;52.472;13.344;2022-12-18T03:35:13;22.97;;;9.60;;
16770;SDS011;8503;52.472;13.344;2022-12-18T03:36:43;31.13;;;9.43;;
16770;SDS011;8503;52.472;13.344;2022-12-18T03:38:06;26.97;;;10.93;;
16770;SDS011;8503;52.472;13.344;2022-12-18T03:39:30;29.43;;;10.23;;
16770;SDS011;8503;52.472;13.344;2022-12-18T03:40:56;31.83;;;9.07;;
16770;SDS011;8503;52.472;13.344;2022-12-18T03:42:23;25.83;;;8.87;;
16770;SDS011;8503;52.472;13.344;2022-12-18T03:43:52;26.10;;;9.60;;
16770;SDS011;8503;52.472;13.344;2022-12-18T03:45:20;24.33;;;9.17;;
16770;SDS011;8503;52.472;13.344;2022-12-18T03:46:46;22.90;;;8.37;;
16770;SDS011;8503;52.472;13.344;2022-12-18T03:48:16;14.73;;;5.10;;
16770;SDS011;8503;52.472;13.344;2022-12-18T03:49:44;21.00;;;6.60;;
16770;SDS011;8503;52.472;13.344;2022-12-18T03:51:09;21.43;;;7.50;;
16770;SDS011;8503;52.472;13.344;2022-12-18T03:52:36;34.50;;;9.63;;
16770;SDS011;8503;52.472;13.344;2022-12-18T03:54:04;25.33;;;10.13;;
16770;SDS011;8503;52.472;13.344;2022-12-18T03:55:29;36.00;;;9.70;;
16770;SDS011;8503;52.472;13.344;2022-12-18T03:56:57;25.40;;;9.37;;
16770;SDS011;8503;52.472;13.344;2022-12-18T03:58:24;21.17;;;6.97;;
16770;SDS011;8503;52.472;13.344;2022-12-18T03:59:47;22.77;;;8.03;;
16770;SDS011;8503;52.472;13.344;2022-12-18T04:01:13;36.03;;;11.13;;
16770;SDS011;8503;52.472;13.344;2022-12-18T04:02:39;37.70;;;11.37;;
16770;SDS011;8503;52.472;13.344;2022-12-18T04:04:05;34.03;;;10.93;;
16770;SDS011;8503;52.472;13.344;2022-12-18T04:05:29;33.43;;;10.33;;
16770;SDS011;8503;52.472;13.344;2022-12-18T04:06:53;25.63;;;8.13;;
16770;SDS011;8503;52.472;13.344;2022-12-18T04:08:17;26.13;;;9.77;;
16770;SDS011;8503;52.472;13.344;2022-12-18T04:09:39;32.07;;;10.57;;
16770;SDS011;8503;52.472;13.344;2022-12-18T04:11:04;6.10;;;2.40;;
16770;SDS011;8503;52.472;13.344;2022-12-18T04:12:28;13.07;;;5.30;;
16770;SDS011;8503;52.472;13.344;2022-12-18T04:13:54;36.13;;;12.43;;
16770;SDS011;8503;52.472;13.344;2022-12-18T04:15:18;13.43;;;5.90;;
16770;SDS011;8503;52.472;13.344;2022-12-18T04:16:43;34.73;;;13.43;;
16770;SDS011;8503;52.472;13.344;2022-12-18T04:18:05;37.87;;;12.50;;
16770;SDS011;8503;52.472;13.344;2022-12-18T04:19:29;38.73;;;13.47;;
16770;SDS011;8503;52.472;13.344;2022-12-18T04:20:52;44.30;;;13.27;;
16770;SDS011;8503;52.472;13.344;2022-12-18T04:22:16;40.53;;;12.10;;
16770;SDS011;8503;52.472;13.344;2022-12-18T04:23:40;51.43;;;12.83;;
16770;SDS011;8503;52.472;13.344;2022-12-18T04:25:03;38.43;;;12.60;;
16770;SDS011;8503;52.472;13.344;2022-12-18T04:26:27;43.17;;;14.33;;
16770;SDS011;8503;52.472;13.344;2022-12-18T04:27:51;39.87;;;13.03;;
16770;SDS011;8503;52.472;13.344;2022-12-18T04:29:13;48.30;;;14.03;;
16770;SDS011;8503;52.472;13.344;2022-12-18T04:30:37;16.30;;;7.03;;
16770;SDS011;8503;52.472;13.344;2022-12-18T04:32:00;28.23;;;8.47;;
16770;SDS011;8503;52.472;13.344;2022-12-18T04:33:24;41.07;;;12.87;;
16770;SDS011;8503;52.472;13.344;2022-12-18T04:34:46;45.43;;;14.90;;
16770;SDS011;8503;52.472;13.344;2022-12-18T04:36:10;26.87;;;9.27;;
16770;SDS011;8503;52.472;13.344;2022-12-18T04:37:34;38.13;;;12.73;;
16770;SDS011;8503;52.472;13.344;2022-12-18T04:38:59;42.60;;;14.53;;
16770;SDS011;8503;52.472;13.344;2022-12-18T04:40:23;45.70;;;15.47;;
16770;SDS011;8503;52.472;13.344;2022-12-18T04:41:46;52.50;;;17.03;;
16770;SDS011;8503;52.472;13.344;2022-12-18T04:43:10;46.10;;;15.20;;
16770;SDS011;8503;52.472;13.344;2022-12-18T04:44:32;53.77;;;14.60;;
16770;SDS011;8503;52.472;13.344;2022-12-18T04:46:01;50.73;;;14.67;;
16770;SDS011;8503;52.472;13.344;2022-12-18T04:47:25;45.57;;;12.83;;
16770;SDS011;8503;52.472;13.344;2022-12-18T04:48:48;20.03;;;9.70;;
16770;SDS011;8503;52.472;13.344;2022-12-18T04:50:12;39.27;;;13.83;;
16770;SDS011;8503;52.472;13.344;2022-12-18T04:51:34;37.23;;;12.10;;
16770;SDS011;8503;52.472;13.344;2022-12-18T04:52:58;44.43;;;13.67;;
16770;SDS011;8503;52.472;13.344;2022-12-18T04:54:20;50.17;;;13.33;;
16770;SDS011;8503;52.472;13.344;2022-12-18T04:55:46;50.73;;;15.10;;
16770;SDS011;8503;52.472;13.344;2022-12-18T04:57:08;48.53;;;13.20;;
16770;SDS011;8503;52.472;13.344;2022-12-18T04:58:32;29.47;;;11.80;;
16770;SDS011;8503;52.472;13.344;2022-12-18T04:59:54;60.03;;;16.33;;
16770;SDS011;8503;52.472;13.344;2022-12-18T05:01:18;55.93;;;16.50;;
16770;SDS011;8503;52.472;13.344;2022-12-18T05:02:43;47.13;;;14.73;;
16770;SDS011;8503;52.472;13.344;2022-12-18T05:04:06;48.93;;;15.07;;
16770;SDS011;8503;52.472;13.344;2022-12-18T05:05:29;16.13;;;5.07;;
16770;SDS011;8503;52.472;13.344;2022-12-18T05:06:52;50.97;;;15.33;;
16770;SDS011;8503;52.472;13.344;2022-12-18T05:08:15;24.77;;;9.67;;
16770;SDS011;8503;52.472;13.344;2022-12-18T05:09:37;45.60;;;14.33;;
16770;SDS011;8503;52.472;13.344;2022-12-18T05:11:02;54.40;;;14.27;;
16770;SDS011;8503;52.472;13.344;2022-12-18T05:12:27;41.30;;;14.57;;
16770;SDS011;8503;52.472;13.344;2022-12-18T05:13:49;48.60;;;12.77;;
16770;SDS011;8503;52.472;13.344;2022-12-18T05:15:13;38.10;;;13.87;;
16770;SDS011;8503;52.472;13.344;2022-12-18T05:16:35;38.43;;;13.47;;
16770;SDS011;8503;52.472;13.344;2022-12-18T05:18:00;35.77;;;11.23;;
16770;SDS011;8503;52.472;13.344;2022-12-18T05:19:23;55.63;;;16.27;;
16770;SDS011;8503;52.472;13.344;2022-12-18T05:20:47;41.97;;;11.77;;
16770;SDS011;8503;52.472;13.344;2022-12-18T05:22:10;29.40;;;9.03;;
16770;SDS011;8503;52.472;13.344;2022-12-18T05:23:33;24.40;;;9.33;;
16770;SDS011;8503;52.472;13.344;2022-12-18T05:24:58;38.57;;;11.83;;
16770;SDS011;8503;52.472;13.344;2022-12-18T05:26:20;43.57;;;14.27;;
16770;SDS011;8503;52.472;13.344;2022-12-18T05:27:43;42.73;;;13.73;;
16770;SDS011;8503;52.472;13.344;2022-12-18T05:29:07;19.73;;;7.33;;
16770;SDS011;8503;52.472;13.344;2022-12-18T05:30:34;48.57;;;14.50;;
16770;SDS011;8503;52.472;13.344;2022-12-18T05:31:57;36.10;;;11.33;;
16770;SDS011;8503;52.472;13.344;2022-12-18T05:33:22;43.87;;;13.20;;
16770;SDS011;8503;52.472;13.344;2022-12-18T05:34:45;44.57;;;14.37;;
16770;SDS011;8503;52.472;13.344;2022-12-18T05:36:09;53.67;;;14.97;;
16770;SDS011;8503;52.472;13.344;2022-12-18T05:37:32;41.93;;;14.13;;
16770;SDS011;8503;52.472;13.344;2022-12-18T05:39:03;55.83;;;15.83;;
16770;SDS011;8503;52.472;13.344;2022-12-18T05:40:27;30.50;;;13.03;;
16770;SDS011;8503;52.472;13.344;2022-12-18T05:41:50;41.00;;;13.43;;
16770;SDS011;8503;52.472;13.344;2022-12-18T05:43:14;43.50;;;13.70;;
16770;SDS011;8503;52.472;13.344;2022-12-18T05:44:42;48.80;;;11.03;;
16770;SDS011;8503;52.472;13.344;2022-12-18T05:46:06;42.23;;;13.40;;
16770;SDS011;8503;52.472;13.344;2022-12-18T05:47:31;28.73;;;11.47;;
16770;SDS011;8503;52.472;13.344;2022-12-18T05:48:58;39.67;;;13.47;;
16770;SDS011;8503;52.472;13.344;2022-12-18T05:50:21;50.97;;;14.87;;
16770;SDS011;8503;52.472;13.344;2022-12-18T05:51:44;54.63;;;16.90;;
16770;SDS011;8503;52.472;13.344;2022-12-18T05:53:08;62.37;;;15.10;;
16770;SDS011;8503;52.472;13.344;2022-12-18T05:54:31;29.40;;;9.40;;
16770;SDS011;8503;52.472;13.344;2022-12-18T05:55:54;51.00;;;12.73;;
16770;SDS011;8503;52.472;13.344;2022-12-18T05:57:22;24.73;;;9.80;;
16770;SDS011;8503;52.472;13.344;2022-12-18T05:58:46;19.03;;;8.63;;
16770;SDS011;8503;52.472;13.344;2022-12-18T06:00:12;20.57;;;7.63;;
16770;SDS011;8503;52.472;13.344;2022-12-18T06:01:36;39.43;;;13.73;;
16770;SDS011;8503;52.472;13.344;2022-12-18T06:02:59;33.97;;;10.73;;
16770;SDS011;8503;52.472;13.344;2022-12-18T06:04:24;38.83;;;14.10;;
16770;SDS011;8503;52.472;13.344;2022-12-18T06:05:48;43.17;;;15.43;;
16770;SDS011;8503;52.472;13.344;2022-12-18T06:07:12;41.80;;;13.80;;
16770;SDS011;8503;52.472;13.344;2022-12-18T06:08:36;46.90;;;13.20;;
16770;SDS011;8503;52.472;13.344;2022-12-18T06:10:06;37.77;;;10.47;;
16770;SDS011;8503;52.472;13.344;2022-12-18T06:11:30;44.17;;;13.37;;
16770;SDS011;8503;52.472;13.344;2022-12-18T06:12:52;56.70;;;16.50;;
16770;SDS011;8503;52.472;13.344;2022-12-18T06:14:16;47.83;;;15.43;;
16770;SDS011;8503;52.472;13.344;2022-12-18T06:15:39;59.40;;;17.13;;
16770;SDS011;8503;52.472;13.344;2022-12-18T06:17:01;46.47;;;14.13;;
16770;SDS011;8503;52.472;13.344;2022-12-18T06:18:25;45.43;;;13.60;;
16770;SDS011;8503;52.472;13.344;2022-12-18T06:19:49;47.17;;;15.07;;
16770;SDS011;8503;52.472;13.344;2022-12-18T06:21:12;43.90;;;14.63;;
16770;SDS011;8503;52.472;13.344;2022-12-18T06:22:34;25.87;;;9.33;;
16770;SDS011;8503;52.472;13.344;2022-12-18T06:23:58;67.57;;;16.37;;
16770;SDS011;8503;52.472;13.344;2022-12-18T06:25:21;57.30;;;16.37;;
16770;SDS011;8503;52.472;13.344;2022-12-18T06:26:45;57.90;;;16.97;;
16770;SDS011;8503;52.472;13.344;2022-12-18T06:28:08;51.07;;;14.77;;
16770;SDS011;8503;52.472;13.344;2022-12-18T06:29:31;46.90;;;14.47;;
16770;SDS011;8503;52.472;13.344;2022-12-18T06:30:54;44.57;;;14.00;;
16770;SDS011;8503;52.472;13.344;2022-12-18T06:32:17;55.27;;;16.23;;
16770;SDS011;8503;52.472;13.344;2022-12-18T06:33:40;54.10;;;17.37;;
16770;SDS011;8503;52.472;13.344;2022-12-18T06:35:06;42.93;;;12.10;;
16770;SDS011;8503;52.472;13.344;2022-12-18T06:36:29;56.43;;;17.13;;
16770;SDS011;8503;52.472;13.344;2022-12-18T06:37:52;31.87;;;10.87;;
16770;SDS011;8503;52.472;13.344;2022-12-18T06:39:16;31.80;;;9.67;;
16770;SDS011;8503;52.472;13.344;2022-12-18T06:40:39;34.07;;;14.80;;
16770;SDS011;8503;52.472;13.344;2022-12-18T06:42:02;43.73;;;15.40;;
16770;SDS011;8503;52.472;13.344;2022-12-18T06:43:26;38.60;;;13.70;;
16770;SDS011;8503;52.472;13.344;2022-12-18T06:44:48;53.30;;;16.47;;
16770;SDS011;8503;52.472;13.344;2022-12-18T06:46:12;48.07;;;17.60;;
16770;SDS011;8503;52.472;13.344;2022-12-18T06:47:35;31.53;;;10.70;;
16770;SDS011;8503;52.472;13.344;2022-12-18T06:48:59;62.37;;;17.77;;
16770;SDS011;8503;52.472;13.344;2022-12-18T06:50:23;45.87;;;15.23;;
16770;SDS011;8503;52.472;13.344;2022-12-18T06:51:46;27.17;;;9.53;;
16770;SDS011;8503;52.472;13.344;2022-12-18T06:53:10;41.63;;;13.97;;
16770;SDS011;8503;52.472;13.344;2022-12-18T06:54:32;49.00;;;15.90;;
16770;SDS011;8503;52.472;13.344;2022-12-18T06:55:59;31.23;;;11.50;;
16770;SDS011;8503;52.472;13.344;2022-12-18T06:57:29;34.23;;;11.70;;
16770;SDS011;8503;52.472;13.344;2022-12-18T06:58:54;46.13;;;14.43;;
16770;SDS011;8503;52.472;13.344;2022-12-18T07:00:18;12.00;;;4.90;;
16770;SDS011;8503;52.472;13.344;2022-12-18T07:01:41;27.23;;;9.87;;
16770;SDS011;8503;52.472;13.344;2022-12-18T07:03:05;46.37;;;13.17;;
16770;SDS011;8503;52.472;13.344;2022-12-18T07:04:28;52.83;;;15.77;;
16770;SDS011;8503;52.472;13.344;2022-12-18T07:05:53;41.33;;;12.60;;
16770;SDS011;8503;52.472;13.344;2022-12-18T07:07:15;36.63;;;13.03;;
16770;SDS011;8503;52.472;13.344;2022-12-18T07:08:39;38.70;;;14.13;;
16770;SDS011;8503;52.472;13.344;2022-12-18T07:10:01;40.97;;;13.93;;
16770;SDS011;8503;52.472;13.344;2022-12-18T07:11:25;33.70;;;13.47;;
16770;SDS011;8503;52.472;13.344;2022-12-18T07:12:48;49.50;;;13.87;;
16770;SDS011;8503;52.472;13.344;2022-12-18T07:14:11;37.27;;;14.43;;
16770;SDS011;8503;52.472;13.344;2022-12-18T07:15:34;36.23;;;10.63;;
16770;SDS011;8503;52.472;13.344;2022-12-18T07:16:57;39.03;;;13.00;;
16770;SDS011;8503;52.472;13.344;2022-12-18T07:18:20;35.40;;;12.70;;
16770;SDS011;8503;52.472;13.344;2022-12-18T07:19:43;19.57;;;8.40;;
16770;SDS011;8503;52.472;13.344;2022-12-18T07:21:08;30.67;;;10.93;;
16770;SDS011;8503;52.472;13.344;2022-12-18T07:22:32;36.27;;;13.20;;
16770;SDS011;8503;52.472;13.344;2022-12-18T07:23:55;31.93;;;11.30;;
16770;SDS011;8503;52.472;13.344;2022-12-18T07:25:19;21.67;;;8.33;;
16770;SDS011;8503;52.472;13.344;2022-12-18T07:26:42;29.10;;;10.30;;
16770;SDS011;8503;52.472;13.344;2022-12-18T07:28:07;29.47;;;10.30;;
16770;SDS011;8503;52.472;13.344;2022-12-18T07:29:37;24.13;;;7.23;;
16770;SDS011;8503;52.472;13.344;2022-12-18T07:31:01;12.30;;;5.63;;
16770;SDS011;8503;52.472;13.344;2022-12-18T07:32:27;23.83;;;8.23;;
16770;SDS011;8503;52.472;13.344;2022-12-18T07:33:50;29.40;;;9.63;;
16770;SDS011;8503;52.472;13.344;2022-12-18T07:35:14;26.87;;;10.17;;
16770;SDS011;8503;52.472;13.344;2022-12-18T07:36:46;39.00;;;11.87;;
16770;SDS011;8503;52.472;13.344;2022-12-18T07:38:09;26.93;;;9.47;;
16770;SDS011;8503;52.472;13.344;2022-12-18T07:39:32;23.07;;;8.40;;
16770;SDS011;8503;52.472;13.344;2022-12-18T07:40:59;28.27;;;9.80;;
16770;SDS011;8503;52.472;13.344;2022-12-18T07:42:22;26.87;;;10.80;;
16770;SDS011;8503;52.472;13.344;2022-12-18T07:43:56;18.10;;;7.07;;
16770;SDS011;8503;52.472;13.344;2022-12-18T07:45:19;15.03;;;4.80;;
16770;SDS011;8503;52.472;13.344;2022-12-18T07:46:42;14.27;;;6.67;;
16770;SDS011;8503;52.472;13.344;2022-12-18T07:48:06;20.07;;;6.97;;
16770;SDS011;8503;52.472;13.344;2022-12-18T07:49:29;14.50;;;5.83;;
16770;SDS011;8503;52.472;13.344;2022-12-18T07:50:53;22.77;;;8.90;;
16770;SDS011;8503;52.472;13.344;2022-12-18T07:52:18;23.60;;;8.80;;
16770;SDS011;8503;52.472;13.344;2022-12-18T07:53:46;8.20;;;4.40;;
16770;SDS011;8503;52.472;13.344;2022-12-18T07:55:12;21.87;;;7.40;;
16770;SDS011;8503;52.472;13.344;2022-12-18T07:56:36;7.20;;;3.70;;
16770;SDS011;8503;52.472;13.344;2022-12-18T07:58:00;14.10;;;4.27;;
16770;SDS011;8503;52.472;13.344;2022-12-18T07:59:24;9.93;;;5.07;;
16770;SDS011;8503;52.472;13.344;2022-12-18T08:00:48;9.60;;;3.60;;
16770;SDS011;8503;52.472;13.344;2022-12-18T08:02:11;31.40;;;11.07;;
16770;SDS011;8503;52.472;13.344;2022-12-18T08:03:36;29.27;;;9.17;;
16770;SDS011;8503;52.472;13.344;2022-12-18T08:05:03;29.60;;;11.73;;
16770;SDS011;8503;52.472;13.344;2022-12-18T08:06:27;36.50;;;11.83;;
16770;SDS011;8503;52.472;13.344;2022-12-18T08:07:52;22.90;;;8.80;;
16770;SDS011;8503;52.472;13.344;2022-12-18T08:09:15;19.67;;;6.60;;
16770;SDS011;8503;52.472;13.344;2022-12-18T08:10:39;33.90;;;10.33;;
16770;SDS011;8503;52.472;13.344;2022-12-18T08:12:03;12.23;;;6.00;;
16770;SDS011;8503;52.472;13.344;2022-12-18T08:13:27;23.93;;;7.83;;
16770;SDS011;8503;52.472;13.344;2022-12-18T08:14:50;25.97;;;9.07;;
16770;SDS011;8503;52.472;13.344;2022-12-18T08:16:14;12.73;;;6.23;;
16770;SDS011;8503;52.472;13.344;2022-12-18T08:17:37;25.63;;;9.33;;
16770;SDS011;8503;52.472;13.344;2022-12-18T08:19:01;30.63;;;9.33;;
16770;SDS011;8503;52.472;13.344;2022-12-18T08:20:24;28.23;;;10.07;;
16770;SDS011;8503;52.472;13.344;2022-12-18T08:21:48;23.43;;;8.20;;